KRIV/RIV METAR and TAF weather

Enter ICAO airport designator
Station Type Date Time Source
KRIV METAR 2020/07/12 02:58 UTC NOAA

KRIV 120258Z AUTO 31006KT 10SM CLR 32/04 A2997 RMK AO2 SLP132 T03150043 53007


Station Type Date Time Source
KRIV Decoded METAR 2020/07/12 02:58 UTC NOAA

Riverside / March Air Force Base, CA, United States (KRIV) 33-54N 117-15W 468M
Jul 11, 2020 - 10:58 PM EDT / 2020.07.12 0258 UTC
Wind: from the NW (310 degrees) at 7 MPH (6 KT):0
Visibility: 10 mile(s):0
Sky conditions: clear
Temperature: 88.7 F (31.5 C)
Dew Point: 39.7 F (4.3 C)
Relative Humidity: 17%
Pressure (altimeter): 29.97 in. Hg (1014 hPa)
Pressure tendency: 0.02 inches (0.7 hPa) higher than three hours ago
ob: KRIV 120258Z AUTO 31006KT 10SM CLR 32/04 A2997 RMK AO2 SLP132 T03150043 53007
cycle: 3

Station Type Date Time Source
KRIV TAF 2020/07/11 20:20 UTC NOAA

TAF KRIV 112000Z 1120/1302 30009KT 9999 FEW120 SCT280 QNH2994INS
TEMPO 1120/1202 31012G20KT
BECMG 1203/1204 VRB05KT 9999 FEW150 SCT250 QNH2996INS
BECMG 1218/1219 31009KT 9999 FEW250 QNH2983INS
TEMPO 1221/1302 31012G20KT TX40/1122Z TN21/1213Z

Example: see airport list